sensor_id;sensor_type;location;lat;lon;timestamp;pressure;altitude;pressure_sealevel;temperature;humidity
64967;BME280;51710;38.732;-121.358;2023-05-08T00:01:49;101315.88;;;21.42;46.65
64967;BME280;51710;38.732;-121.358;2023-05-08T00:04:15;101301.25;;;21.43;46.35
64967;BME280;51710;38.732;-121.358;2023-05-08T00:06:42;101301.47;;;21.42;46.18
64967;BME280;51710;38.732;-121.358;2023-05-08T00:09:08;101303.34;;;21.41;45.79
64967;BME280;51710;38.732;-121.358;2023-05-08T00:11:34;101290.44;;;21.37;46.02
64967;BME280;51710;38.732;-121.358;2023-05-08T00:14:01;101293.38;;;21.35;46.47
64967;BME280;51710;38.732;-121.358;2023-05-08T00:16:27;101295.47;;;21.33;46.22
64967;BME280;51710;38.732;-121.358;2023-05-08T00:18:53;101289.84;;;21.28;45.27
64967;BME280;51710;38.732;-121.358;2023-05-08T00:21:19;101285.47;;;21.20;45.60
64967;BME280;51710;38.732;-121.358;2023-05-08T00:23:46;101283.84;;;21.13;45.83
64967;BME280;51710;38.732;-121.358;2023-05-08T00:26:12;101287.41;;;21.07;46.27
64967;BME280;51710;38.732;-121.358;2023-05-08T00:28:38;101276.78;;;21.05;45.80
64967;BME280;51710;38.732;-121.358;2023-05-08T00:31:04;101275.94;;;21.05;46.08
64967;BME280;51710;38.732;-121.358;2023-05-08T00:33:31;101257.19;;;21.03;46.64
64967;BME280;51710;38.732;-121.358;2023-05-08T00:36:01;101259.69;;;21.05;46.60
64967;BME280;51710;38.732;-121.358;2023-05-08T00:38:34;101270.09;;;21.08;46.57
64967;BME280;51710;38.732;-121.358;2023-05-08T00:41:01;101269.28;;;21.07;45.90
64967;BME280;51710;38.732;-121.358;2023-05-08T00:43:30;101259.28;;;21.01;45.89
64967;BME280;51710;38.732;-121.358;2023-05-08T00:45:59;101259.69;;;20.92;46.04
64967;BME280;51710;38.732;-121.358;2023-05-08T00:48:30;101264.28;;;20.85;45.86
64967;BME280;51710;38.732;-121.358;2023-05-08T00:50:57;101258.88;;;20.72;45.83
64967;BME280;51710;38.732;-121.358;2023-05-08T00:53:25;101253.47;;;20.65;46.18
64967;BME280;51710;38.732;-121.358;2023-05-08T00:55:51;101258.69;;;20.60;46.61
64967;BME280;51710;38.732;-121.358;2023-05-08T00:58:19;101257.22;;;20.58;46.58
64967;BME280;51710;38.732;-121.358;2023-05-08T01:00:46;101258.91;;;20.59;46.72
64967;BME280;51710;38.732;-121.358;2023-05-08T01:03:13;101258.91;;;20.59;46.50
64967;BME280;51710;38.732;-121.358;2023-05-08T01:05:40;101255.13;;;20.60;46.84
64967;BME280;51710;38.732;-121.358;2023-05-08T01:08:06;101259.72;;;20.59;46.14
64967;BME280;51710;38.732;-121.358;2023-05-08T01:16:40;101247.22;;;20.39;45.83
64967;BME280;51710;38.732;-121.358;2023-05-08T01:25:08;101250.56;;;20.28;46.43
64967;BME280;51710;38.732;-121.358;2023-05-08T01:33:00;101251.38;;;20.15;45.84
64967;BME280;51710;38.732;-121.358;2023-05-08T01:35:46;101253.66;;;20.11;46.11
64967;BME280;51710;38.732;-121.358;2023-05-08T01:41:05;101243.00;;;20.03;46.24
64967;BME280;51710;38.732;-121.358;2023-05-08T01:44:01;101248.41;;;20.03;46.86
64967;BME280;51710;38.732;-121.358;2023-05-08T01:46:31;101249.69;;;20.01;45.66
64967;BME280;51710;38.732;-121.358;2023-05-08T01:51:35;101247.56;;;19.90;46.37
64967;BME280;51710;38.732;-121.358;2023-05-08T01:54:06;101250.72;;;20.06;46.31
64967;BME280;51710;38.732;-121.358;2023-05-08T01:56:34;101253.44;;;20.13;45.92
64967;BME280;51710;38.732;-121.358;2023-05-08T01:59:03;101251.13;;;20.03;46.03
64967;BME280;51710;38.732;-121.358;2023-05-08T02:01:32;101259.66;;;19.87;46.14
64967;BME280;51710;38.732;-121.358;2023-05-08T02:03:59;101255.84;;;19.75;45.93
64967;BME280;51710;38.732;-121.358;2023-05-08T02:06:26;101247.50;;;19.64;46.19
64967;BME280;51710;38.732;-121.358;2023-05-08T02:08:55;101248.06;;;19.53;45.67
64967;BME280;51710;38.732;-121.358;2023-05-08T02:11:23;101242.84;;;19.45;46.11
64967;BME280;51710;38.732;-121.358;2023-05-08T02:13:50;101240.56;;;19.35;46.07
64967;BME280;51710;38.732;-121.358;2023-05-08T02:16:18;101241.53;;;19.28;45.63
64967;BME280;51710;38.732;-121.358;2023-05-08T02:18:51;101240.22;;;19.17;45.94
64967;BME280;51710;38.732;-121.358;2023-05-08T02:21:19;101236.00;;;19.08;45.75
64967;BME280;51710;38.732;-121.358;2023-05-08T02:23:46;101237.84;;;19.01;46.20
64967;BME280;51710;38.732;-121.358;2023-05-08T02:26:14;101232.22;;;18.96;46.29
64967;BME280;51710;38.732;-121.358;2023-05-08T02:28:41;101233.63;;;18.92;46.54
64967;BME280;51710;38.732;-121.358;2023-05-08T02:31:09;101237.78;;;18.88;46.65
64967;BME280;51710;38.732;-121.358;2023-05-08T02:33:40;101238.16;;;18.85;46.76
64967;BME280;51710;38.732;-121.358;2023-05-08T02:36:10;101236.91;;;18.81;46.66
64967;BME280;51710;38.732;-121.358;2023-05-08T02:38:39;101229.59;;;18.75;46.90
64967;BME280;51710;38.732;-121.358;2023-05-08T02:41:07;101239.09;;;18.71;47.04
64967;BME280;51710;38.732;-121.358;2023-05-08T02:43:34;101235.78;;;18.69;46.80
64967;BME280;51710;38.732;-121.358;2023-05-08T02:46:11;101237.19;;;18.65;47.10
64967;BME280;51710;38.732;-121.358;2023-05-08T02:48:55;101233.22;;;18.61;46.79
64967;BME280;51710;38.732;-121.358;2023-05-08T02:51:28;101236.53;;;18.56;47.30
64967;BME280;51710;38.732;-121.358;2023-05-08T02:54:09;101241.03;;;18.49;47.82
64967;BME280;51710;38.732;-121.358;2023-05-08T03:00:49;101230.94;;;18.37;48.13
64967;BME280;51710;38.732;-121.358;2023-05-08T03:03:00;101240.00;;;18.29;47.98
64967;BME280;51710;38.732;-121.358;2023-05-08T03:05:36;101244.50;;;18.22;48.08
64967;BME280;51710;38.732;-121.358;2023-05-08T03:08:10;101241.53;;;18.17;47.95
64967;BME280;51710;38.732;-121.358;2023-05-08T03:10:41;101240.66;;;18.10;47.90
64967;BME280;51710;38.732;-121.358;2023-05-08T03:13:10;101243.94;;;18.06;48.24
64967;BME280;51710;38.732;-121.358;2023-05-08T03:15:42;101244.69;;;17.99;47.95
64967;BME280;51710;38.732;-121.358;2023-05-08T03:18:16;101241.75;;;17.94;48.08
64967;BME280;51710;38.732;-121.358;2023-05-08T03:20:44;101237.75;;;17.90;48.19
64967;BME280;51710;38.732;-121.358;2023-05-08T03:23:16;101239.13;;;17.80;48.43
64967;BME280;51710;38.732;-121.358;2023-05-08T03:25:43;101238.56;;;17.70;48.72
64967;BME280;51710;38.732;-121.358;2023-05-08T03:28:10;101244.34;;;17.67;48.86
64967;BME280;51710;38.732;-121.358;2023-05-08T03:30:40;101238.50;;;17.63;49.09
64967;BME280;51710;38.732;-121.358;2023-05-08T03:33:07;101240.34;;;17.63;49.11
64967;BME280;51710;38.732;-121.358;2023-05-08T03:35:38;101242.25;;;17.62;49.61
64967;BME280;51710;38.732;-121.358;2023-05-08T03:38:05;101244.28;;;17.60;49.81
64967;BME280;51710;38.732;-121.358;2023-05-08T03:40:33;101244.66;;;17.57;49.89
64967;BME280;51710;38.732;-121.358;2023-05-08T03:43:09;101243.75;;;17.50;49.88
64967;BME280;51710;38.732;-121.358;2023-05-08T03:45:37;101246.13;;;17.45;50.43
64967;BME280;51710;38.732;-121.358;2023-05-08T03:48:06;101242.34;;;17.40;50.60
64967;BME280;51710;38.732;-121.358;2023-05-08T03:50:35;101239.22;;;17.36;50.46
64967;BME280;51710;38.732;-121.358;2023-05-08T03:53:02;101234.81;;;17.35;50.63
64967;BME280;51710;38.732;-121.358;2023-05-08T03:55:31;101239.75;;;17.32;50.50
64967;BME280;51710;38.732;-121.358;2023-05-08T03:58:17;101247.09;;;17.23;50.22
64967;BME280;51710;38.732;-121.358;2023-05-08T04:06:24;101244.78;;;17.06;50.66
64967;BME280;51710;38.732;-121.358;2023-05-08T04:09:07;101260.28;;;17.04;50.63
64967;BME280;51710;38.732;-121.358;2023-05-08T04:14:28;101257.50;;;16.97;51.12
64967;BME280;51710;38.732;-121.358;2023-05-08T04:17:02;101268.66;;;16.94;51.57
64967;BME280;51710;38.732;-121.358;2023-05-08T04:19:33;101270.69;;;16.92;51.67
64967;BME280;51710;38.732;-121.358;2023-05-08T04:22:06;101264.38;;;16.85;51.57
64967;BME280;51710;38.732;-121.358;2023-05-08T04:24:35;101264.75;;;16.82;51.95
64967;BME280;51710;38.732;-121.358;2023-05-08T04:27:04;101269.47;;;16.80;52.44
64967;BME280;51710;38.732;-121.358;2023-05-08T04:29:31;101266.78;;;16.80;52.33
64967;BME280;51710;38.732;-121.358;2023-05-08T04:31:59;101267.31;;;16.75;51.99
64967;BME280;51710;38.732;-121.358;2023-05-08T04:34:27;101265.00;;;16.72;52.67
64967;BME280;51710;38.732;-121.358;2023-05-08T04:36:54;101258.16;;;16.70;52.75
64967;BME280;51710;38.732;-121.358;2023-05-08T04:39:20;101267.41;;;16.67;52.99
64967;BME280;51710;38.732;-121.358;2023-05-08T04:41:47;101264.63;;;16.61;52.85
64967;BME280;51710;38.732;-121.358;2023-05-08T04:44:15;101263.50;;;16.55;52.95
64967;BME280;51710;38.732;-121.358;2023-05-08T04:46:42;101262.56;;;16.48;53.31
64967;BME280;51710;38.732;-121.358;2023-05-08T04:49:08;101269.78;;;16.48;53.77
64967;BME280;51710;38.732;-121.358;2023-05-08T04:51:34;101273.00;;;16.43;53.67
64967;BME280;51710;38.732;-121.358;2023-05-08T04:54:01;101269.47;;;16.43;54.25
64967;BME280;51710;38.732;-121.358;2023-05-08T04:56:27;101274.16;;;16.41;54.24
64967;BME280;51710;38.732;-121.358;2023-05-08T04:58:53;101272.88;;;16.37;54.33
64967;BME280;51710;38.732;-121.358;2023-05-08T05:01:19;101273.41;;;16.32;54.43
64967;BME280;51710;38.732;-121.358;2023-05-08T05:03:45;101267.94;;;16.26;54.89
64967;BME280;51710;38.732;-121.358;2023-05-08T05:06:12;101273.53;;;16.16;55.21
64967;BME280;51710;38.732;-121.358;2023-05-08T05:08:38;101268.06;;;16.10;55.20
64967;BME280;51710;38.732;-121.358;2023-05-08T05:11:04;101277.66;;;16.04;55.66
64967;BME280;51710;38.732;-121.358;2023-05-08T05:13:31;101275.81;;;16.05;56.17
64967;BME280;51710;38.732;-121.358;2023-05-08T05:16:00;101275.81;;;16.05;56.20
64967;BME280;51710;38.732;-121.358;2023-05-08T05:18:26;101278.19;;;16.00;56.71
64967;BME280;51710;38.732;-121.358;2023-05-08T05:20:53;101278.91;;;15.94;56.82
64967;BME280;51710;38.732;-121.358;2023-05-08T05:23:19;101283.97;;;15.89;57.37
64967;BME280;51710;38.732;-121.358;2023-05-08T05:25:45;101284.72;;;15.83;57.44
64967;BME280;51710;38.732;-121.358;2023-05-08T05:28:11;101282.34;;;15.79;57.60
64967;BME280;51710;38.732;-121.358;2023-05-08T05:30:38;101287.59;;;15.73;58.21
64967;BME280;51710;38.732;-121.358;2023-05-08T05:33:04;101287.47;;;15.66;58.31
64967;BME280;51710;38.732;-121.358;2023-05-08T05:35:31;101285.81;;;15.65;58.39
64967;BME280;51710;38.732;-121.358;2023-05-08T05:37:57;101279.59;;;15.65;58.96
64967;BME280;51710;38.732;-121.358;2023-05-08T05:40:23;101279.13;;;15.61;58.91
64967;BME280;51710;38.732;-121.358;2023-05-08T05:42:49;101271.94;;;15.54;58.77
64967;BME280;51710;38.732;-121.358;2023-05-08T05:45:16;101279.00;;;15.47;59.13
64967;BME280;51710;38.732;-121.358;2023-05-08T05:47:46;101276.03;;;15.42;59.09
64967;BME280;51710;38.732;-121.358;2023-05-08T05:50:16;101269.47;;;15.36;58.85
64967;BME280;51710;38.732;-121.358;2023-05-08T05:52:43;101274.16;;;15.34;58.81
64967;BME280;51710;38.732;-121.358;2023-05-08T05:55:09;101277.22;;;15.31;59.10
64967;BME280;51710;38.732;-121.358;2023-05-08T05:57:35;101276.91;;;15.26;59.00
64967;BME280;51710;38.732;-121.358;2023-05-08T06:00:03;101280.75;;;15.24;58.75
64967;BME280;51710;38.732;-121.358;2023-05-08T06:02:30;101286.97;;;15.24;58.96
64967;BME280;51710;38.732;-121.358;2023-05-08T06:05:02;101286.59;;;15.27;58.73
64967;BME280;51710;38.732;-121.358;2023-05-08T06:07:28;101285.97;;;15.25;58.19
64967;BME280;51710;38.732;-121.358;2023-05-08T06:09:55;101281.94;;;15.21;58.43
64967;BME280;51710;38.732;-121.358;2023-05-08T06:12:21;101281.94;;;15.21;58.11
64967;BME280;51710;38.732;-121.358;2023-05-08T06:14:47;101283.97;;;15.19;58.07
64967;BME280;51710;38.732;-121.358;2023-05-08T06:17:16;101284.31;;;15.16;57.69
64967;BME280;51710;38.732;-121.358;2023-05-08T06:19:43;101281.81;;;15.15;57.88
64967;BME280;51710;38.732;-121.358;2023-05-08T06:22:15;101283.47;;;15.16;58.45
64967;BME280;51710;38.732;-121.358;2023-05-08T06:24:48;101282.44;;;15.17;58.28
64967;BME280;51710;38.732;-121.358;2023-05-08T06:27:18;101281.81;;;15.15;58.38
64967;BME280;51710;38.732;-121.358;2023-05-08T06:29:49;101283.81;;;15.13;58.40
64967;BME280;51710;38.732;-121.358;2023-05-08T06:32:19;101280.84;;;15.08;58.46
64967;BME280;51710;38.732;-121.358;2023-05-08T06:34:45;101284.69;;;15.05;58.39
64967;BME280;51710;38.732;-121.358;2023-05-08T06:37:12;101293.44;;;14.99;58.56
64967;BME280;51710;38.732;-121.358;2023-05-08T06:39:38;101292.09;;;14.95;58.67
64967;BME280;51710;38.732;-121.358;2023-05-08T06:42:04;101292.44;;;14.92;58.63
64967;BME280;51710;38.732;-121.358;2023-05-08T06:44:32;101288.41;;;14.88;58.34
64967;BME280;51710;38.732;-121.358;2023-05-08T06:46:58;101292.63;;;14.83;58.21
64967;BME280;51710;38.732;-121.358;2023-05-08T06:49:24;101282.72;;;14.75;58.25
64967;BME280;51710;38.732;-121.358;2023-05-08T06:51:50;101282.25;;;14.72;58.35
64967;BME280;51710;38.732;-121.358;2023-05-08T06:54:17;101285.63;;;14.65;58.46
64967;BME280;51710;38.732;-121.358;2023-05-08T06:56:44;101290.31;;;14.63;58.49
64967;BME280;51710;38.732;-121.358;2023-05-08T06:59:10;101288.16;;;14.59;58.58
64967;BME280;51710;38.732;-121.358;2023-05-08T07:01:37;101284.13;;;14.55;58.41
64967;BME280;51710;38.732;-121.358;2023-05-08T07:04:04;101292.81;;;14.49;58.53
64967;BME280;51710;38.732;-121.358;2023-05-08T07:06:30;101298.69;;;14.44;58.71
64967;BME280;51710;38.732;-121.358;2023-05-08T07:08:56;101289.13;;;14.42;58.32
64967;BME280;51710;38.732;-121.358;2023-05-08T07:11:23;101302.19;;;14.37;58.35
64967;BME280;51710;38.732;-121.358;2023-05-08T07:13:49;101292.84;;;14.33;58.45
64967;BME280;51710;38.732;-121.358;2023-05-08T07:16:15;101299.38;;;14.30;58.50
64967;BME280;51710;38.732;-121.358;2023-05-08T07:18:42;101301.38;;;14.28;58.48
64967;BME280;51710;38.732;-121.358;2023-05-08T07:21:09;101297.31;;;14.24;58.23
64967;BME280;51710;38.732;-121.358;2023-05-08T07:23:35;101292.47;;;14.20;58.67
64967;BME280;51710;38.732;-121.358;2023-05-08T07:26:02;101298.16;;;14.17;58.71
64967;BME280;51710;38.732;-121.358;2023-05-08T07:28:28;101299.47;;;14.13;58.88
64967;BME280;51710;38.732;-121.358;2023-05-08T07:30:54;101305.84;;;14.12;58.62
64967;BME280;51710;38.732;-121.358;2023-05-08T07:33:21;101299.16;;;14.08;58.65
64967;BME280;51710;38.732;-121.358;2023-05-08T07:35:48;101302.97;;;14.05;58.82
64967;BME280;51710;38.732;-121.358;2023-05-08T07:38:14;101310.84;;;13.99;58.76
64967;BME280;51710;38.732;-121.358;2023-05-08T07:40:40;101310.50;;;13.94;59.09
64967;BME280;51710;38.732;-121.358;2023-05-08T07:43:07;101310.00;;;13.90;59.11
64967;BME280;51710;38.732;-121.358;2023-05-08T07:45:34;101317.34;;;13.88;59.18
64967;BME280;51710;38.732;-121.358;2023-05-08T07:48:00;101310.31;;;13.87;58.97
64967;BME280;51710;38.732;-121.358;2023-05-08T07:50:27;101311.47;;;13.85;59.18
64967;BME280;51710;38.732;-121.358;2023-05-08T07:52:53;101306.13;;;13.85;59.13
64967;BME280;51710;38.732;-121.358;2023-05-08T07:55:19;101309.97;;;13.82;59.04
64967;BME280;51710;38.732;-121.358;2023-05-08T07:57:46;101316.16;;;13.83;59.15
64967;BME280;51710;38.732;-121.358;2023-05-08T08:00:14;101312.16;;;13.79;59.11
64967;BME280;51710;38.732;-121.358;2023-05-08T08:02:41;101317.97;;;13.74;59.29
64967;BME280;51710;38.732;-121.358;2023-05-08T08:05:08;101321.16;;;13.70;59.25
64967;BME280;51710;38.732;-121.358;2023-05-08T08:07:35;101319.31;;;13.70;59.35
64967;BME280;51710;38.732;-121.358;2023-05-08T08:10:02;101317.13;;;13.66;59.45
64967;BME280;51710;38.732;-121.358;2023-05-08T08:12:29;101320.97;;;13.63;59.57
64967;BME280;51710;38.732;-121.358;2023-05-08T08:14:56;101314.09;;;13.61;59.27
64967;BME280;51710;38.732;-121.358;2023-05-08T08:17:23;101320.63;;;13.58;59.67
64967;BME280;51710;38.732;-121.358;2023-05-08T08:19:49;101317.94;;;13.58;59.47
64967;BME280;51710;38.732;-121.358;2023-05-08T08:22:15;101312.72;;;13.56;59.30
64967;BME280;51710;38.732;-121.358;2023-05-08T08:24:41;101315.06;;;13.51;59.38
64967;BME280;51710;38.732;-121.358;2023-05-08T08:27:07;101305.53;;;13.49;59.46
64967;BME280;51710;38.732;-121.358;2023-05-08T08:29:34;101308.38;;;13.47;59.49
64967;BME280;51710;38.732;-121.358;2023-05-08T08:32:00;101303.31;;;13.44;59.55
64967;BME280;51710;38.732;-121.358;2023-05-08T08:34:28;101298.63;;;13.38;59.73
64967;BME280;51710;38.732;-121.358;2023-05-08T08:36:54;101299.94;;;13.34;60.12
64967;BME280;51710;38.732;-121.358;2023-05-08T08:39:20;101302.09;;;13.31;60.07
64967;BME280;51710;38.732;-121.358;2023-05-08T08:41:47;101299.25;;;13.24;60.29
64967;BME280;51710;38.732;-121.358;2023-05-08T08:44:13;101295.19;;;13.20;60.42
64967;BME280;51710;38.732;-121.358;2023-05-08T08:46:49;101306.22;;;13.17;60.22
64967;BME280;51710;38.732;-121.358;2023-05-08T08:49:28;101309.88;;;13.16;60.47
64967;BME280;51710;38.732;-121.358;2023-05-08T08:52:01;101314.72;;;13.13;60.42
64967;BME280;51710;38.732;-121.358;2023-05-08T08:54:29;101317.72;;;13.10;60.72
64967;BME280;51710;38.732;-121.358;2023-05-08T08:57:03;101313.38;;;13.09;60.57
64967;BME280;51710;38.732;-121.358;2023-05-08T08:59:33;101311.16;;;13.04;61.10
64967;BME280;51710;38.732;-121.358;2023-05-08T09:02:04;101307.50;;;13.05;60.95
64967;BME280;51710;38.732;-121.358;2023-05-08T09:04:31;101306.97;;;13.02;61.14
64967;BME280;51710;38.732;-121.358;2023-05-08T09:06:57;101318.94;;;12.98;61.08
64967;BME280;51710;38.732;-121.358;2023-05-08T09:09:24;101310.41;;;12.94;61.25
64967;BME280;51710;38.732;-121.358;2023-05-08T09:11:51;101313.41;;;12.91;61.37
64967;BME280;51710;38.732;-121.358;2023-05-08T09:14:18;101308.22;;;12.90;61.61
64967;BME280;51710;38.732;-121.358;2023-05-08T09:16:44;101305.69;;;12.88;61.64
64967;BME280;51710;38.732;-121.358;2023-05-08T09:19:13;101303.31;;;12.85;62.06
64967;BME280;51710;38.732;-121.358;2023-05-08T09:21:40;101307.97;;;12.83;62.11
64967;BME280;51710;38.732;-121.358;2023-05-08T09:24:07;101302.97;;;12.80;62.19
64967;BME280;51710;38.732;-121.358;2023-05-08T09:26:35;101308.47;;;12.79;62.01
64967;BME280;51710;38.732;-121.358;2023-05-08T09:29:15;101312.16;;;12.78;62.37
64967;BME280;51710;38.732;-121.358;2023-05-08T09:31:44;101313.97;;;12.77;62.63
64967;BME280;51710;38.732;-121.358;2023-05-08T09:34:27;101306.94;;;12.76;62.66
64967;BME280;51710;38.732;-121.358;2023-05-08T09:36:55;101301.59;;;12.76;62.53
64967;BME280;51710;38.732;-121.358;2023-05-08T09:39:23;101296.88;;;12.70;62.90
64967;BME280;51710;38.732;-121.358;2023-05-08T09:42:00;101283.69;;;12.69;63.09
64967;BME280;51710;38.732;-121.358;2023-05-08T09:44:27;101301.69;;;12.67;63.26
64967;BME280;51710;38.732;-121.358;2023-05-08T09:47:14;101292.16;;;12.64;63.30
64967;BME280;51710;38.732;-121.358;2023-05-08T09:52:28;101288.81;;;12.62;63.10
64967;BME280;51710;38.732;-121.358;2023-05-08T09:55:08;101289.28;;;12.58;63.43
64967;BME280;51710;38.732;-121.358;2023-05-08T09:57:50;101287.53;;;12.48;63.60
64967;BME280;51710;38.732;-121.358;2023-05-08T10:00:17;101277.47;;;12.42;63.84
64967;BME280;51710;38.732;-121.358;2023-05-08T10:02:59;101270.75;;;12.38;63.88
64967;BME280;51710;38.732;-121.358;2023-05-08T10:05:33;101277.28;;;12.36;64.18
64967;BME280;51710;38.732;-121.358;2023-05-08T10:08:21;101281.06;;;12.33;64.35
64967;BME280;51710;38.732;-121.358;2023-05-08T10:10:48;101290.22;;;12.31;64.75
64967;BME280;51710;38.732;-121.358;2023-05-08T10:13:14;101291.22;;;12.30;64.42
64967;BME280;51710;38.732;-121.358;2023-05-08T10:15:41;101306.88;;;12.25;64.61
64967;BME280;51710;38.732;-121.358;2023-05-08T10:18:09;101307.72;;;12.25;65.22
64967;BME280;51710;38.732;-121.358;2023-05-08T10:20:41;101318.41;;;12.25;64.87
64967;BME280;51710;38.732;-121.358;2023-05-08T10:23:14;101322.22;;;12.23;65.33
64967;BME280;51710;38.732;-121.358;2023-05-08T10:25:45;101336.56;;;12.22;65.19
64967;BME280;51710;38.732;-121.358;2023-05-08T10:30:58;101327.22;;;12.26;65.17
64967;BME280;51710;38.732;-121.358;2023-05-08T10:33:29;101326.25;;;12.27;65.42
64967;BME280;51710;38.732;-121.358;2023-05-08T10:35:56;101328.25;;;12.25;65.35
64967;BME280;51710;38.732;-121.358;2023-05-08T10:38:24;101322.38;;;12.21;65.26
64967;BME280;51710;38.732;-121.358;2023-05-08T10:40:51;101325.47;;;12.17;65.60
64967;BME280;51710;38.732;-121.358;2023-05-08T10:43:25;101326.09;;;12.11;66.19
64967;BME280;51710;38.732;-121.358;2023-05-08T10:45:54;101329.38;;;12.05;66.19
64967;BME280;51710;38.732;-121.358;2023-05-08T10:54:12;101309.47;;;11.99;66.85
64967;BME280;51710;38.732;-121.358;2023-05-08T10:56:42;101315.47;;;12.01;67.10
64967;BME280;51710;38.732;-121.358;2023-05-08T10:59:19;101311.00;;;12.02;67.31
64967;BME280;51710;38.732;-121.358;2023-05-08T11:01:49;101314.50;;;12.02;67.87
64967;BME280;51710;38.732;-121.358;2023-05-08T11:04:22;101311.69;;;12.04;67.65
64967;BME280;51710;38.732;-121.358;2023-05-08T11:06:49;101321.50;;;12.03;68.21
64967;BME280;51710;38.732;-121.358;2023-05-08T11:09:28;101322.53;;;12.02;68.21
64967;BME280;51710;38.732;-121.358;2023-05-08T11:12:25;101326.31;;;12.00;68.18
64967;BME280;51710;38.732;-121.358;2023-05-08T11:15:04;101318.63;;;11.97;68.20
64967;BME280;51710;38.732;-121.358;2023-05-08T11:17:34;101333.94;;;11.95;68.86
64967;BME280;51710;38.732;-121.358;2023-05-08T11:20:05;101337.63;;;11.94;68.97
64967;BME280;51710;38.732;-121.358;2023-05-08T11:22:33;101339.75;;;11.90;69.12
64967;BME280;51710;38.732;-121.358;2023-05-08T11:25:08;101342.84;;;11.86;68.76
64967;BME280;51710;38.732;-121.358;2023-05-08T11:30:33;101354.28;;;11.78;70.14
64967;BME280;51710;38.732;-121.358;2023-05-08T11:33:11;101361.59;;;11.76;69.67
64967;BME280;51710;38.732;-121.358;2023-05-08T11:35:53;101357.13;;;11.77;69.89
64967;BME280;51710;38.732;-121.358;2023-05-08T11:38:21;101362.28;;;11.78;70.06
64967;BME280;51710;38.732;-121.358;2023-05-08T11:43:47;101350.06;;;11.76;70.36
64967;BME280;51710;38.732;-121.358;2023-05-08T11:46:19;101363.41;;;11.76;70.16
64967;BME280;51710;38.732;-121.358;2023-05-08T11:48:46;101343.78;;;11.77;70.41
64967;BME280;51710;38.732;-121.358;2023-05-08T11:51:15;101348.25;;;11.76;70.80
64967;BME280;51710;38.732;-121.358;2023-05-08T11:53:42;101347.25;;;11.77;70.32
64967;BME280;51710;38.732;-121.358;2023-05-08T11:56:09;101349.09;;;11.77;70.76
64967;BME280;51710;38.732;-121.358;2023-05-08T11:58:35;101355.25;;;11.77;70.74
64967;BME280;51710;38.732;-121.358;2023-05-08T12:01:02;101348.09;;;11.78;70.70
64967;BME280;51710;38.732;-121.358;2023-05-08T12:03:28;101353.44;;;11.78;70.79
64967;BME280;51710;38.732;-121.358;2023-05-08T12:05:56;101351.63;;;11.78;70.54
64967;BME280;51710;38.732;-121.358;2023-05-08T12:08:23;101347.94;;;11.79;70.87
64967;BME280;51710;38.732;-121.358;2023-05-08T12:10:53;101349.34;;;11.83;71.15
64967;BME280;51710;38.732;-121.358;2023-05-08T12:13:24;101344.81;;;11.84;70.79
64967;BME280;51710;38.732;-121.358;2023-05-08T12:15:53;101345.66;;;11.84;70.83
64967;BME280;51710;38.732;-121.358;2023-05-08T12:18:21;101348.50;;;11.83;71.16
64967;BME280;51710;38.732;-121.358;2023-05-08T12:20:56;101339.09;;;11.79;70.85
64967;BME280;51710;38.732;-121.358;2023-05-08T12:23:24;101340.09;;;11.78;70.83
64967;BME280;51710;38.732;-121.358;2023-05-08T12:25:51;101350.22;;;11.74;71.29
64967;BME280;51710;38.732;-121.358;2023-05-08T12:28:21;101342.38;;;11.73;71.19
64967;BME280;51710;38.732;-121.358;2023-05-08T12:30:47;101338.00;;;11.72;71.76
64967;BME280;51710;38.732;-121.358;2023-05-08T12:33:15;101344.66;;;11.68;71.43
64967;BME280;51710;38.732;-121.358;2023-05-08T12:35:41;101356.56;;;11.64;71.59
64967;BME280;51710;38.732;-121.358;2023-05-08T12:38:08;101360.25;;;11.63;71.42
64967;BME280;51710;38.732;-121.358;2023-05-08T12:40:44;101361.22;;;11.62;72.06
64967;BME280;51710;38.732;-121.358;2023-05-08T12:43:11;101359.53;;;11.61;71.63
64967;BME280;51710;38.732;-121.358;2023-05-08T12:45:41;101364.88;;;11.61;71.95
64967;BME280;51710;38.732;-121.358;2023-05-08T12:48:12;101362.38;;;11.59;72.25
64967;BME280;51710;38.732;-121.358;2023-05-08T12:50:41;101362.38;;;11.59;72.03
64967;BME280;51710;38.732;-121.358;2023-05-08T12:53:13;101356.19;;;11.59;72.27
64967;BME280;51710;38.732;-121.358;2023-05-08T12:55:52;101357.16;;;11.58;72.25
64967;BME280;51710;38.732;-121.358;2023-05-08T12:58:20;101351.53;;;11.61;72.70
64967;BME280;51710;38.732;-121.358;2023-05-08T13:00:50;101349.69;;;11.61;72.42
64967;BME280;51710;38.732;-121.358;2023-05-08T13:03:25;101356.47;;;11.65;72.80
64967;BME280;51710;38.732;-121.358;2023-05-08T13:05:53;101350.00;;;11.68;72.77
64967;BME280;51710;38.732;-121.358;2023-05-08T13:08:27;101350.69;;;11.70;72.29
64967;BME280;51710;38.732;-121.358;2023-05-08T13:10:56;101355.03;;;11.71;72.72
64967;BME280;51710;38.732;-121.358;2023-05-08T13:13:24;101351.34;;;11.72;72.62
64967;BME280;51710;38.732;-121.358;2023-05-08T13:15:52;101351.09;;;11.75;73.00
64967;BME280;51710;38.732;-121.358;2023-05-08T13:18:19;101348.94;;;11.78;72.83
64967;BME280;51710;38.732;-121.358;2023-05-08T13:20:46;101343.47;;;11.80;72.59
64967;BME280;51710;38.732;-121.358;2023-05-08T13:23:12;101343.16;;;11.83;72.64